Time;durP1;ratioP1;P1;durP2;ratioP2;P2;SDS_P1;SDS_P2;PMS_P1;PMS_P2;Temp;Humidity;BMP_temperature;BMP_pressure;BME280_temperature;BME280_humidity;BME280_pressure;Samples;Min_cycle;Max_cycle;Signal;HPM_P1;HPM_P2
2022/04/06 00:02:13;;;;;;;16.15;14.82;;;;;;;;;;12307976;28;20059;-77
2022/04/06 00:08:14;;;;;;;15.02;13.73;;;;;;;;;;12284136;29;20047;-77
2022/04/06 00:14:16;;;;;;;15.55;14.18;;;;;;;;;;12300574;28;20038;-77
2022/04/06 00:20:18;;;;;;;15.18;13.88;;;;;;;;;;12300349;28;20500;-77
2022/04/06 00:26:20;;;;;;;16.25;14.77;;;;;;;;;;12302966;28;20050;-77
2022/04/06 00:32:22;;;;;;;14.75;13.52;;;;;;;;;;12309782;28;20051;-77
2022/04/06 00:38:23;;;;;;;15.13;13.82;;;;;;;;;;12283497;29;20524;-77
2022/04/06 00:44:28;;;;;;;16.67;15.18;;;;;;;;;;12294889;28;20444;-77
2022/04/06 00:50:29;;;;;;;16.45;14.95;;;;;;;;;;12282200;28;20481;-77
2022/04/06 00:56:31;;;;;;;14.52;13.20;;;;;;;;;;12281413;28;20477;-77
2022/04/06 01:02:33;;;;;;;14.55;13.32;;;;;;;;;;12298553;28;20031;-77
2022/04/06 01:08:35;;;;;;;14.35;13.07;;;;;;;;;;12299142;28;20050;-77
2022/04/06 01:14:38;;;;;;;14.88;13.57;;;;;;;;;;12266285;28;20412;-77
2022/04/06 01:20:40;;;;;;;16.45;14.95;;;;;;;;;;12293238;28;20050;-77
2022/04/06 01:26:42;;;;;;;15.90;14.50;;;;;;;;;;12296842;28;20106;-77
2022/04/06 01:32:44;;;;;;;16.23;14.77;;;;;;;;;;12280311;28;20039;-77
2022/04/06 01:38:46;;;;;;;15.03;13.73;;;;;;;;;;12264787;29;20070;-77
2022/04/06 01:44:48;;;;;;;15.02;13.63;;;;;;;;;;12299462;28;20050;-77
2022/04/06 01:57:10;;;;;;;18.38;16.75;;;;;;;;;;12280769;28;20054;-77
2022/04/06 02:03:12;;;;;;;13.57;12.35;;;;;;;;;;12298047;28;20042;-77
2022/04/06 02:09:14;;;;;;;17.27;15.85;;;;;;;;;;12297767;28;20116;-77
2022/04/06 02:15:16;;;;;;;17.63;16.00;;;;;;;;;;12264566;28;20043;-77
2022/04/06 02:21:17;;;;;;;17.25;15.65;;;;;;;;;;12297693;28;20035;-77
2022/04/06 02:27:19;;;;;;;15.25;14.02;;;;;;;;;;12297899;28;20054;-77
2022/04/06 02:33:21;;;;;;;16.00;14.65;;;;;;;;;;12310708;28;20039;-77
2022/04/06 02:39:22;;;;;;;17.35;15.85;;;;;;;;;;12306035;28;20575;-77
2022/04/06 02:45:24;;;;;;;16.33;14.85;;;;;;;;;;12305643;28;20043;-77
2022/04/06 02:51:26;;;;;;;17.45;15.85;;;;;;;;;;12288890;28;20043;-77
2022/04/06 02:57:28;;;;;;;14.73;13.43;;;;;;;;;;12272903;28;20046;-77
2022/04/06 03:03:29;;;;;;;17.02;15.45;;;;;;;;;;12304931;28;20504;-77
2022/04/06 03:09:31;;;;;;;17.25;15.63;;;;;;;;;;12306361;28;20503;-77
2022/04/06 03:15:33;;;;;;;18.25;16.45;;;;;;;;;;12299619;28;20082;-78
2022/04/06 03:21:34;;;;;;;14.18;12.98;;;;;;;;;;12304808;28;20035;-78
2022/04/06 03:27:36;;;;;;;17.48;15.88;;;;;;;;;;12271473;28;20206;-78
2022/04/06 03:33:38;;;;;;;17.73;16.08;;;;;;;;;;12303939;28;20031;-78
2022/04/06 03:39:40;;;;;;;18.00;16.23;;;;;;;;;;12303470;28;20067;-78
2022/04/06 03:45:41;;;;;;;17.30;15.63;;;;;;;;;;12302562;28;20493;-78
2022/04/06 03:51:43;;;;;;;16.35;14.75;;;;;;;;;;12298571;28;20368;-78
2022/04/06 03:57:45;;;;;;;16.38;14.93;;;;;;;;;;12303260;28;20524;-78
2022/04/06 04:03:47;;;;;;;17.70;16.08;;;;;;;;;;12285461;29;20047;-78
2022/04/06 04:09:50;;;;;;;21.38;19.23;;;;;;;;;;12285717;28;20062;-78
2022/04/06 04:15:51;;;;;;;22.77;20.60;;;;;;;;;;12284878;28;20032;-78
2022/04/06 04:21:53;;;;;;;20.25;18.35;;;;;;;;;;12296869;28;20039;-77
2022/04/06 04:27:55;;;;;;;19.33;17.48;;;;;;;;;;12284138;28;20043;-78
2022/04/06 04:33:57;;;;;;;19.02;17.25;;;;;;;;;;12289366;28;20035;-78
2022/04/06 04:39:59;;;;;;;19.42;17.65;;;;;;;;;;12285287;28;20062;-78
2022/04/06 04:46:00;;;;;;;16.88;15.38;;;;;;;;;;12282856;28;20054;-78
2022/04/06 04:52:02;;;;;;;20.17;18.40;;;;;;;;;;12283004;28;20504;-77
2022/04/06 04:58:04;;;;;;;16.15;14.75;;;;;;;;;;12298516;28;20027;-77
2022/04/06 05:04:06;;;;;;;14.80;13.45;;;;;;;;;;12266761;29;20050;-77
2022/04/06 05:10:08;;;;;;;20.35;18.50;;;;;;;;;;12298616;28;20392;-77
2022/04/06 05:16:10;;;;;;;20.43;18.47;;;;;;;;;;12298123;28;20515;-77
2022/04/06 05:22:11;;;;;;;18.60;17.00;;;;;;;;;;12297978;28;20640;-78
2022/04/06 05:28:15;;;;;;;14.95;13.63;;;;;;;;;;12298316;28;20043;-78
2022/04/06 05:34:17;;;;;;;18.15;16.35;;;;;;;;;;12292228;28;20035;-79
2022/04/06 05:40:19;;;;;;;21.85;19.75;;;;;;;;;;12299480;28;20055;-78
2022/04/06 05:46:21;;;;;;;20.03;18.17;;;;;;;;;;12297494;28;20504;-80
2022/04/06 05:52:23;;;;;;;16.88;15.30;;;;;;;;;;12274018;28;20039;-79
2022/04/06 05:58:24;;;;;;;18.08;16.38;;;;;;;;;;12295641;29;20027;-80
2022/04/06 06:04:26;;;;;;;15.02;13.68;;;;;;;;;;12280830;28;20031;-80
2022/04/06 06:10:28;;;;;;;18.77;16.98;;;;;;;;;;12265425;29;20039;-79
2022/04/06 06:16:30;;;;;;;17.45;15.85;;;;;;;;;;12288467;29;20032;-79
2022/04/06 06:22:32;;;;;;;16.95;15.45;;;;;;;;;;12279530;28;20035;-80
2022/04/06 06:28:33;;;;;;;12.88;11.75;;;;;;;;;;12265869;29;20277;-79
2022/04/06 06:34:35;;;;;;;17.63;16.02;;;;;;;;;;12253605;29;20031;-80
2022/04/06 06:40:37;;;;;;;14.73;13.43;;;;;;;;;;12283607;29;20059;-80
2022/04/06 06:46:38;;;;;;;15.70;14.40;;;;;;;;;;12259498;29;20044;-78
2022/04/06 06:52:41;;;;;;;;;;;;;;;;;;12273673;29;20082;-80
2022/04/06 06:58:43;;;;;;;15.63;14.13;;;;;;;;;;12268061;28;19914;-79
2022/04/06 07:04:46;;;;;;;23.30;20.60;;;;;;;;;;12258860;28;20052;-80
2022/04/06 07:10:49;;;;;;;21.75;19.60;;;;;;;;;;12268967;29;20459;-80
2022/04/06 07:16:51;;;;;;;22.92;20.75;;;;;;;;;;12278981;29;20495;-80
2022/04/06 07:22:53;;;;;;;21.33;19.27;;;;;;;;;;12259148;28;20031;-78
2022/04/06 07:28:55;;;;;;;19.02;17.20;;;;;;;;;;12284605;29;20051;-78
2022/04/06 07:34:56;;;;;;;15.60;14.20;;;;;;;;;;12263572;28;20387;-79
2022/04/06 07:40:58;;;;;;;15.98;14.48;;;;;;;;;;12270786;29;20528;-78
2022/04/06 07:47:00;;;;;;;14.30;13.07;;;;;;;;;;12273127;28;20555;-81
2022/04/06 07:53:02;;;;;;;12.30;11.20;;;;;;;;;;12264696;29;20508;-81
2022/04/06 07:59:04;;;;;;;9.55;8.75;;;;;;;;;;12253543;29;20024;-81
2022/04/06 08:05:06;;;;;;;10.07;9.27;;;;;;;;;;12279070;28;20063;-80
2022/04/06 08:11:08;;;;;;;12.00;10.85;;;;;;;;;;12271539;29;20484;-80
2022/04/06 08:17:10;;;;;;;10.37;9.40;;;;;;;;;;12283284;29;20024;-79
2022/04/06 08:23:12;;;;;;;9.75;8.80;;;;;;;;;;12264959;29;20498;-79
2022/04/06 08:29:14;;;;;;;10.75;9.65;;;;;;;;;;12302251;28;20047;-79
2022/04/06 08:35:17;;;;;;;9.15;8.35;;;;;;;;;;12273337;29;20039;-79
2022/04/06 08:41:24;;;;;;;12.20;11.10;;;;;;;;;;12280163;28;20047;-81
2022/04/06 08:47:26;;;;;;;10.07;9.13;;;;;;;;;;12271912;28;20054;-82
2022/04/06 08:53:27;;;;;;;13.17;11.97;;;;;;;;;;12249339;29;20043;-80
2022/04/06 08:59:29;;;;;;;15.20;13.73;;;;;;;;;;12276943;28;20036;-80
2022/04/06 09:05:32;;;;;;;11.82;10.73;;;;;;;;;;12273124;28;20054;-79
2022/04/06 09:11:44;;;;;;;13.85;12.63;;;;;;;;;;12289786;29;20042;-79
2022/04/06 09:17:50;;;;;;;18.23;16.38;;;;;;;;;;12275794;28;20054;-79
2022/04/06 09:23:52;;;;;;;14.10;12.70;;;;;;;;;;12277510;28;20034;-77
2022/04/06 09:29:54;;;;;;;15.03;13.53;;;;;;;;;;12275529;28;20405;-78
2022/04/06 09:35:58;;;;;;;11.88;10.77;;;;;;;;;;12259386;29;20396;-78
2022/04/06 09:42:00;;;;;;;15.30;13.68;;;;;;;;;;12286386;28;20082;-77
2022/04/06 09:48:02;;;;;;;13.75;12.43;;;;;;;;;;12244743;29;20048;-78
2022/04/06 09:54:05;;;;;;;13.87;12.57;;;;;;;;;;12248256;29;20042;-80
2022/04/06 10:00:07;;;;;;;11.68;10.48;;;;;;;;;;12255395;29;20515;-81
2022/04/06 10:06:10;;;;;;;12.38;11.25;;;;;;;;;;12291872;28;20050;-79
2022/04/06 10:12:12;;;;;;;11.63;10.52;;;;;;;;;;12264232;28;20043;-80
2022/04/06 10:18:14;;;;;;;13.37;12.13;;;;;;;;;;12290755;28;20039;-80
2022/04/06 10:24:22;;;;;;;9.30;8.47;;;;;;;;;;12271017;29;20043;-82
2022/04/06 10:30:26;;;;;;;6.60;6.00;;;;;;;;;;12269288;28;20042;-81
2022/04/06 10:36:29;;;;;;;7.38;6.68;;;;;;;;;;12289291;28;20039;-80
2022/04/06 10:42:35;;;;;;;11.18;10.13;;;;;;;;;;12292863;29;20062;-80
2022/04/06 10:49:15;;;;;;;7.82;7.05;;;;;;;;;;12261818;29;20043;-79
2022/04/06 10:55:24;;;;;;;8.20;7.40;;;;;;;;;;12175154;29;20043;-81
2022/04/06 11:01:29;;;;;;;11.27;10.27;;;;;;;;;;12285659;28;20501;-77
2022/04/06 11:13:55;;;;;;;9.35;8.45;;;;;;;;;;12278907;28;20394;-77
2022/04/06 11:19:57;;;;;;;11.20;10.20;;;;;;;;;;12295405;28;20484;-78
2022/04/06 11:26:00;;;;;;;8.07;7.23;;;;;;;;;;12296641;28;20500;-79
2022/04/06 11:32:04;;;;;;;7.97;7.15;;;;;;;;;;12282777;28;20042;-79
2022/04/06 11:38:07;;;;;;;8.85;8.02;;;;;;;;;;12306565;28;20081;-78
2022/04/06 11:44:09;;;;;;;8.15;7.45;;;;;;;;;;12305019;28;20043;-77
2022/04/06 11:50:12;;;;;;;8.43;7.73;;;;;;;;;;12305426;28;20031;-78
2022/04/06 11:56:20;;;;;;;8.05;7.30;;;;;;;;;;12286644;28;20392;-80
2022/04/06 12:02:22;;;;;;;8.70;7.80;;;;;;;;;;12304546;28;20031;-77
2022/04/06 12:08:24;;;;;;;7.85;7.05;;;;;;;;;;12304012;28;20076;-77
2022/04/06 12:14:26;;;;;;;7.63;7.00;;;;;;;;;;12277706;28;20039;-76
2022/04/06 12:20:28;;;;;;;6.73;6.10;;;;;;;;;;12312165;28;20039;-78
2022/04/06 12:26:39;;;;;;;6.95;6.18;;;;;;;;;;12303718;28;20405;-78
2022/04/06 12:32:44;;;;;;;8.63;7.82;;;;;;;;;;12286310;28;20047;-77
2022/04/06 12:38:57;;;;;;;9.98;8.85;;;;;;;;;;12317091;28;20063;-77
2022/04/06 12:45:02;;;;;;;9.93;8.95;;;;;;;;;;12302687;28;20050;-79
2022/04/06 12:51:21;;;;;;;11.40;10.40;;;;;;;;;;12302735;28;20477;-75
2022/04/06 12:57:25;;;;;;;6.30;5.80;;;;;;;;;;12302293;28;20039;-75
2022/04/06 13:03:27;;;;;;;11.55;10.38;;;;;;;;;;12301776;28;20047;-76
2022/04/06 13:09:29;;;;;;;8.40;7.60;;;;;;;;;;12302125;28;20047;-77
2022/04/06 13:15:32;;;;;;;8.70;7.90;;;;;;;;;;12302268;28;20042;-76
2022/04/06 13:21:35;;;;;;;7.43;6.68;;;;;;;;;;12283685;28;20058;-77
2022/04/06 13:27:39;;;;;;;6.15;5.60;;;;;;;;;;12301053;28;20111;-75
2022/04/06 13:33:40;;;;;;;7.28;6.57;;;;;;;;;;12300920;28;20043;-76
2022/04/06 13:39:42;;;;;;;6.60;6.00;;;;;;;;;;12301236;28;20369;-75
2022/04/06 13:45:44;;;;;;;13.07;11.77;;;;;;;;;;12299376;28;20054;-76
2022/04/06 13:51:46;;;;;;;8.00;7.20;;;;;;;;;;12300632;28;20035;-76
2022/04/06 13:57:48;;;;;;;6.43;5.13;;;;;;;;;;12299423;28;20036;-77
2022/04/06 14:03:50;;;;;;;;;;;;;;;;;;12299744;28;20031;-79
2022/04/06 14:09:52;;;;;;;8.55;6.85;;;;;;;;;;12298520;28;19918;-79
2022/04/06 14:15:54;;;;;;;4.33;3.63;;;;;;;;;;12293530;28;20050;-79
2022/04/06 14:21:55;;;;;;;5.50;4.93;;;;;;;;;;12301202;28;20293;-79
2022/04/06 14:27:57;;;;;;;9.07;8.17;;;;;;;;;;12300259;28;20054;-80
2022/04/06 14:33:59;;;;;;;8.57;7.70;;;;;;;;;;12301184;28;20058;-80
2022/04/06 14:40:03;;;;;;;6.10;5.47;;;;;;;;;;12292597;28;20132;-80
2022/04/06 14:46:06;;;;;;;7.65;6.90;;;;;;;;;;12308704;28;20477;-79
2022/04/06 14:52:08;;;;;;;6.88;6.22;;;;;;;;;;12291592;28;20050;-79
2022/04/06 14:58:10;;;;;;;5.87;5.37;;;;;;;;;;12308107;28;20058;-79
2022/04/06 15:04:11;;;;;;;8.68;7.82;;;;;;;;;;12307620;28;20401;-80
2022/04/06 15:10:13;;;;;;;7.53;6.80;;;;;;;;;;12307139;28;20035;-80
2022/04/06 15:16:15;;;;;;;8.10;7.30;;;;;;;;;;12320990;28;20054;-79
2022/04/06 15:22:17;;;;;;;6.17;5.67;;;;;;;;;;12289966;28;20038;-80
2022/04/06 15:28:19;;;;;;;9.35;8.43;;;;;;;;;;12306143;28;20538;-80
2022/04/06 15:40:41;;;;;;;3.25;3.05;;;;;;;;;;12305519;28;19941;-80
2022/04/06 15:46:43;;;;;;;3.03;2.72;;;;;;;;;;12288839;28;20047;-80
2022/04/06 15:52:45;;;;;;;4.93;4.43;;;;;;;;;;12303735;28;20127;-81
2022/04/06 15:58:47;;;;;;;4.13;3.10;;;;;;;;;;12303181;28;20531;-77
2022/04/06 16:04:49;;;;;;;3.57;3.17;;;;;;;;;;12304825;28;20031;-78
2022/04/06 16:10:51;;;;;;;4.15;2.83;;;;;;;;;;12304554;28;20413;-85
2022/04/06 16:16:53;;;;;;;1.23;1.13;;;;;;;;;;12287152;28;20054;-75
2022/04/06 16:22:55;;;;;;;2.20;2.00;;;;;;;;;;12304082;28;20036;-78
2022/04/06 16:28:58;;;;;;;3.75;2.17;;;;;;;;;;12286554;29;20397;-84
2022/04/06 16:35:00;;;;;;;2.38;1.80;;;;;;;;;;12270959;28;20060;-83
2022/04/06 16:41:02;;;;;;;3.77;2.53;;;;;;;;;;12283123;28;20501;-80
2022/04/06 16:47:05;;;;;;;2.47;2.28;;;;;;;;;;12302341;28;20303;-78
2022/04/06 16:53:07;;;;;;;2.17;1.98;;;;;;;;;;12300505;28;20054;-77
2022/04/06 16:59:09;;;;;;;3.20;2.40;;;;;;;;;;12317495;28;20047;-79
2022/04/06 17:05:11;;;;;;;2.10;1.70;;;;;;;;;;12281843;28;20043;-78
2022/04/06 17:11:13;;;;;;;2.25;1.55;;;;;;;;;;12299448;28;20116;-78
2022/04/06 17:17:14;;;;;;;3.77;2.70;;;;;;;;;;12299116;28;20034;-76
2022/04/06 17:23:16;;;;;;;2.50;2.30;;;;;;;;;;12290797;29;20042;-80
2022/04/06 17:29:19;;;;;;;3.63;2.40;;;;;;;;;;12304546;28;20535;-80
2022/04/06 17:35:21;;;;;;;4.15;3.22;;;;;;;;;;12299028;28;20043;-81
2022/04/06 17:41:25;;;;;;;4.82;3.85;;;;;;;;;;12289254;28;20047;-82
2022/04/06 17:47:27;;;;;;;3.83;2.47;;;;;;;;;;12290363;28;20059;-77
2022/04/06 17:53:29;;;;;;;2.97;2.67;;;;;;;;;;12297882;28;20031;-84
2022/04/06 17:59:31;;;;;;;2.80;2.57;;;;;;;;;;12280962;28;20062;-87
2022/04/06 18:05:33;;;;;;;3.33;3.03;;;;;;;;;;12285137;28;20051;-81
2022/04/06 18:17:55;;;;;;;4.90;3.58;;;;;;;;;;12307365;28;20058;-78
2022/04/06 18:23:57;;;;;;;6.13;5.37;;;;;;;;;;12273550;29;20383;-79
2022/04/06 18:29:59;;;;;;;4.10;3.67;;;;;;;;;;12273350;28;20035;-79
2022/04/06 18:36:01;;;;;;;5.50;3.92;;;;;;;;;;12307066;28;20032;-79
2022/04/06 18:42:07;;;;;;;4.67;3.70;;;;;;;;;;12288458;28;20386;-78
2022/04/06 18:48:08;;;;;;;3.72;3.42;;;;;;;;;;12300712;28;20051;-76
2022/04/06 18:54:10;;;;;;;5.33;4.27;;;;;;;;;;12287640;29;20027;-75
2022/04/06 19:00:14;;;;;;;4.17;3.43;;;;;;;;;;12287627;28;20035;-79
2022/04/06 19:06:16;;;;;;;6.93;6.03;;;;;;;;;;12287219;28;20047;-78
2022/04/06 19:12:19;;;;;;;4.85;3.83;;;;;;;;;;12271277;28;20059;-81
2022/04/06 19:18:21;;;;;;;5.22;4.72;;;;;;;;;;12314903;28;20050;-80
2022/04/06 19:24:22;;;;;;;5.13;4.73;;;;;;;;;;12270424;28;20062;-76
2022/04/06 19:30:24;;;;;;;4.63;4.20;;;;;;;;;;12286521;28;20035;-77
2022/04/06 19:36:28;;;;;;;4.57;4.00;;;;;;;;;;12303071;28;20054;-77
2022/04/06 19:42:33;;;;;;;7.60;6.88;;;;;;;;;;12286337;28;20055;-78
2022/04/06 19:48:34;;;;;;;6.70;6.00;;;;;;;;;;12301867;28;20401;-81
2022/04/06 19:54:36;;;;;;;7.30;6.60;;;;;;;;;;12302504;28;20035;-77
2022/04/06 20:00:38;;;;;;;9.95;8.95;;;;;;;;;;12284873;28;20031;-77
2022/04/06 20:06:40;;;;;;;9.10;8.20;;;;;;;;;;12303037;28;20047;-74
2022/04/06 20:12:42;;;;;;;7.80;7.13;;;;;;;;;;12284220;28;20043;-76
2022/04/06 20:18:43;;;;;;;6.30;5.72;;;;;;;;;;12284344;29;20042;-78
2022/04/06 20:24:45;;;;;;;7.23;6.53;;;;;;;;;;12267266;28;20035;-78
2022/04/06 20:30:49;;;;;;;7.13;6.43;;;;;;;;;;12300766;28;20043;-78
2022/04/06 20:36:54;;;;;;;7.07;5.57;;;;;;;;;;12300821;28;20039;-78
2022/04/06 20:42:56;;;;;;;5.55;5.15;;;;;;;;;;12252728;29;20052;-78
2022/04/06 20:48:57;;;;;;;6.68;6.00;;;;;;;;;;12251756;29;20413;-78
2022/04/06 20:55:01;;;;;;;5.88;5.38;;;;;;;;;;12253097;29;20036;-78
2022/04/06 21:01:03;;;;;;;4.68;4.20;;;;;;;;;;12254148;29;20043;-78
2022/04/06 21:07:05;;;;;;;4.95;4.53;;;;;;;;;;12253251;29;20425;-78
2022/04/06 21:13:07;;;;;;;6.37;5.87;;;;;;;;;;12264663;28;20040;-78
2022/04/06 21:19:09;;;;;;;7.22;6.60;;;;;;;;;;12253227;29;20046;-78
2022/04/06 21:25:12;;;;;;;5.32;4.47;;;;;;;;;;12254125;29;20039;-78
2022/04/06 21:31:15;;;;;;;4.80;4.40;;;;;;;;;;12253921;29;20040;-78
2022/04/06 21:37:17;;;;;;;5.18;4.78;;;;;;;;;;12255641;29;20047;-77
2022/04/06 21:43:18;;;;;;;8.68;7.88;;;;;;;;;;12300501;28;20082;-78
2022/04/06 21:49:20;;;;;;;7.97;7.28;;;;;;;;;;12300998;28;20054;-79
2022/04/06 21:55:22;;;;;;;7.88;7.18;;;;;;;;;;12283872;28;20385;-78
2022/04/06 22:01:24;;;;;;;8.20;7.40;;;;;;;;;;12300838;28;20039;-78
2022/04/06 22:07:26;;;;;;;6.97;6.37;;;;;;;;;;12283729;28;20479;-78
2022/04/06 22:13:28;;;;;;;6.82;6.25;;;;;;;;;;12283592;29;20493;-79
2022/04/06 22:19:29;;;;;;;6.80;5.75;;;;;;;;;;12283190;28;20039;-79
2022/04/06 22:25:35;;;;;;;6.22;5.72;;;;;;;;;;12282983;28;20051;-78
2022/04/06 22:31:37;;;;;;;6.47;5.97;;;;;;;;;;12300498;28;20039;-79
2022/04/06 22:37:39;;;;;;;6.93;6.35;;;;;;;;;;12300657;28;20051;-79
2022/04/06 22:43:40;;;;;;;6.65;6.05;;;;;;;;;;12312132;28;20039;-78
2022/04/06 22:49:42;;;;;;;6.43;5.82;;;;;;;;;;12300162;28;20047;-79
2022/04/06 22:55:44;;;;;;;6.70;6.10;;;;;;;;;;12308028;28;20027;-78
2022/04/06 23:01:45;;;;;;;6.80;6.20;;;;;;;;;;12290695;28;20046;-78
2022/04/06 23:07:48;;;;;;;7.43;6.82;;;;;;;;;;12306573;28;20047;-78
2022/04/06 23:13:49;;;;;;;7.03;6.43;;;;;;;;;;12304986;28;20035;-78
2022/04/06 23:19:51;;;;;;;6.15;5.55;;;;;;;;;;12304761;28;20035;-78
2022/04/06 23:25:53;;;;;;;6.85;6.25;;;;;;;;;;12292072;28;20054;-78
2022/04/06 23:31:55;;;;;;;7.00;6.40;;;;;;;;;;12311215;28;20038;-78
2022/04/06 23:37:57;;;;;;;7.20;6.57;;;;;;;;;;12286834;28;20071;-79
2022/04/06 23:43:59;;;;;;;8.23;7.43;;;;;;;;;;12303606;28;20039;-79
2022/04/06 23:50:01;;;;;;;7.13;6.53;;;;;;;;;;12303362;28;20039;-79
2022/04/06 23:56:02;;;;;;;6.68;6.07;;;;;;;;;;12304527;28;20493;-79
